sensor_id;sensor_type;location;lat;lon;timestamp;P1;durP1;ratioP1;P2;durP2;ratioP2
31906;SDS011;18455;50.858;13.662;2023-11-21T00:02:37;2.90;;;2.30;;
31906;SDS011;18455;50.858;13.662;2023-11-21T00:07:40;3.03;;;1.90;;
31906;SDS011;18455;50.858;13.662;2023-11-21T00:12:40;2.00;;;1.80;;
31906;SDS011;18455;50.858;13.662;2023-11-21T00:17:42;4.00;;;2.60;;
31906;SDS011;18455;50.858;13.662;2023-11-21T00:22:42;2.60;;;2.40;;
31906;SDS011;18455;50.858;13.662;2023-11-21T00:27:42;2.77;;;2.47;;
31906;SDS011;18455;50.858;13.662;2023-11-21T00:32:43;3.57;;;2.70;;
31906;SDS011;18455;50.858;13.662;2023-11-21T00:37:43;4.57;;;2.63;;
31906;SDS011;18455;50.858;13.662;2023-11-21T00:42:43;5.90;;;3.70;;
31906;SDS011;18455;50.858;13.662;2023-11-21T00:47:44;6.60;;;3.40;;
31906;SDS011;18455;50.858;13.662;2023-11-21T00:52:44;5.57;;;4.57;;
31906;SDS011;18455;50.858;13.662;2023-11-21T00:57:44;5.87;;;5.23;;
31906;SDS011;18455;50.858;13.662;2023-11-21T01:02:44;5.27;;;4.77;;
31906;SDS011;18455;50.858;13.662;2023-11-21T01:07:45;7.83;;;4.93;;
31906;SDS011;18455;50.858;13.662;2023-11-21T01:12:45;9.87;;;5.80;;
31906;SDS011;18455;50.858;13.662;2023-11-21T01:17:46;10.53;;;6.20;;
31906;SDS011;18455;50.858;13.662;2023-11-21T01:22:46;11.33;;;6.37;;
31906;SDS011;18455;50.858;13.662;2023-11-21T01:27:49;11.37;;;6.50;;
31906;SDS011;18455;50.858;13.662;2023-11-21T01:32:49;12.77;;;6.70;;
31906;SDS011;18455;50.858;13.662;2023-11-21T01:37:50;10.40;;;5.37;;
31906;SDS011;18455;50.858;13.662;2023-11-21T01:42:50;9.07;;;4.97;;
31906;SDS011;18455;50.858;13.662;2023-11-21T01:47:50;11.47;;;5.43;;
31906;SDS011;18455;50.858;13.662;2023-11-21T01:52:51;13.80;;;5.30;;
31906;SDS011;18455;50.858;13.662;2023-11-21T01:57:51;15.47;;;5.53;;
31906;SDS011;18455;50.858;13.662;2023-11-21T02:02:52;9.93;;;4.73;;
31906;SDS011;18455;50.858;13.662;2023-11-21T02:07:52;13.40;;;4.20;;
31906;SDS011;18455;50.858;13.662;2023-11-21T02:12:53;6.27;;;3.90;;
31906;SDS011;18455;50.858;13.662;2023-11-21T02:17:55;10.73;;;3.97;;
31906;SDS011;18455;50.858;13.662;2023-11-21T02:22:56;11.43;;;3.60;;
31906;SDS011;18455;50.858;13.662;2023-11-21T02:28:00;11.33;;;4.67;;
31906;SDS011;18455;50.858;13.662;2023-11-21T02:33:01;8.00;;;4.20;;
31906;SDS011;18455;50.858;13.662;2023-11-21T02:38:01;7.67;;;4.07;;
31906;SDS011;18455;50.858;13.662;2023-11-21T02:43:01;9.33;;;4.87;;
31906;SDS011;18455;50.858;13.662;2023-11-21T02:48:02;8.98;;;4.78;;
31906;SDS011;18455;50.858;13.662;2023-11-21T02:53:03;7.57;;;4.73;;
31906;SDS011;18455;50.858;13.662;2023-11-21T02:58:04;10.77;;;5.10;;
31906;SDS011;18455;50.858;13.662;2023-11-21T03:03:04;11.00;;;5.33;;
31906;SDS011;18455;50.858;13.662;2023-11-21T03:08:05;9.53;;;5.40;;
31906;SDS011;18455;50.858;13.662;2023-11-21T03:13:05;8.70;;;5.40;;
31906;SDS011;18455;50.858;13.662;2023-11-21T03:18:05;14.53;;;6.13;;
31906;SDS011;18455;50.858;13.662;2023-11-21T03:23:06;11.47;;;6.23;;
31906;SDS011;18455;50.858;13.662;2023-11-21T03:28:06;7.63;;;5.63;;
31906;SDS011;18455;50.858;13.662;2023-11-21T03:33:09;8.87;;;5.07;;
31906;SDS011;18455;50.858;13.662;2023-11-21T03:38:10;10.70;;;6.00;;
31906;SDS011;18455;50.858;13.662;2023-11-21T03:43:10;10.03;;;5.20;;
31906;SDS011;18455;50.858;13.662;2023-11-21T03:48:12;11.20;;;5.53;;
31906;SDS011;18455;50.858;13.662;2023-11-21T03:53:12;9.67;;;5.57;;
31906;SDS011;18455;50.858;13.662;2023-11-21T03:58:13;12.50;;;6.50;;
31906;SDS011;18455;50.858;13.662;2023-11-21T04:03:13;10.87;;;6.13;;
31906;SDS011;18455;50.858;13.662;2023-11-21T04:08:13;12.27;;;7.50;;
31906;SDS011;18455;50.858;13.662;2023-11-21T04:13:14;14.83;;;6.60;;
31906;SDS011;18455;50.858;13.662;2023-11-21T04:18:14;17.27;;;8.00;;
31906;SDS011;18455;50.858;13.662;2023-11-21T04:23:15;15.47;;;8.17;;
31906;SDS011;18455;50.858;13.662;2023-11-21T04:28:15;17.60;;;8.57;;
31906;SDS011;18455;50.858;13.662;2023-11-21T04:33:15;14.53;;;7.80;;
31906;SDS011;18455;50.858;13.662;2023-11-21T04:38:16;15.17;;;6.93;;
31906;SDS011;18455;50.858;13.662;2023-11-21T04:43:16;14.30;;;6.57;;
31906;SDS011;18455;50.858;13.662;2023-11-21T04:48:16;13.73;;;7.10;;
31906;SDS011;18455;50.858;13.662;2023-11-21T04:53:17;9.80;;;6.60;;
31906;SDS011;18455;50.858;13.662;2023-11-21T04:58:17;12.03;;;6.77;;
31906;SDS011;18455;50.858;13.662;2023-11-21T05:03:17;16.50;;;7.30;;
31906;SDS011;18455;50.858;13.662;2023-11-21T05:08:17;19.60;;;10.10;;
31906;SDS011;18455;50.858;13.662;2023-11-21T05:13:19;24.97;;;10.77;;
31906;SDS011;18455;50.858;13.662;2023-11-21T05:18:20;22.83;;;7.10;;
31906;SDS011;18455;50.858;13.662;2023-11-21T05:23:20;18.53;;;7.50;;
31906;SDS011;18455;50.858;13.662;2023-11-21T05:28:20;17.10;;;8.20;;
31906;SDS011;18455;50.858;13.662;2023-11-21T05:33:21;18.67;;;7.70;;
31906;SDS011;18455;50.858;13.662;2023-11-21T05:38:21;15.67;;;7.77;;
31906;SDS011;18455;50.858;13.662;2023-11-21T05:43:21;11.67;;;6.90;;
31906;SDS011;18455;50.858;13.662;2023-11-21T05:48:22;10.67;;;6.90;;
31906;SDS011;18455;50.858;13.662;2023-11-21T05:53:22;18.53;;;7.40;;
31906;SDS011;18455;50.858;13.662;2023-11-21T05:58:23;15.17;;;8.37;;
31906;SDS011;18455;50.858;13.662;2023-11-21T06:03:23;20.93;;;7.80;;
31906;SDS011;18455;50.858;13.662;2023-11-21T06:08:24;12.53;;;7.63;;
31906;SDS011;18455;50.858;13.662;2023-11-21T06:13:24;15.17;;;7.43;;
31906;SDS011;18455;50.858;13.662;2023-11-21T06:18:24;10.93;;;7.30;;
31906;SDS011;18455;50.858;13.662;2023-11-21T06:23:25;16.60;;;8.40;;
31906;SDS011;18455;50.858;13.662;2023-11-21T06:28:25;24.07;;;9.43;;
31906;SDS011;18455;50.858;13.662;2023-11-21T06:33:25;17.67;;;8.40;;
31906;SDS011;18455;50.858;13.662;2023-11-21T06:38:27;17.53;;;8.70;;
31906;SDS011;18455;50.858;13.662;2023-11-21T06:43:30;16.20;;;8.93;;
31906;SDS011;18455;50.858;13.662;2023-11-21T06:48:31;21.60;;;9.73;;
31906;SDS011;18455;50.858;13.662;2023-11-21T06:53:31;18.40;;;9.93;;
31906;SDS011;18455;50.858;13.662;2023-11-21T06:58:32;21.87;;;10.03;;
31906;SDS011;18455;50.858;13.662;2023-11-21T07:03:32;15.83;;;8.73;;
31906;SDS011;18455;50.858;13.662;2023-11-21T07:08:32;19.07;;;7.83;;
31906;SDS011;18455;50.858;13.662;2023-11-21T07:13:33;24.70;;;10.47;;
31906;SDS011;18455;50.858;13.662;2023-11-21T07:18:33;25.07;;;9.63;;
31906;SDS011;18455;50.858;13.662;2023-11-21T07:23:33;26.90;;;10.63;;
31906;SDS011;18455;50.858;13.662;2023-11-21T07:28:34;21.40;;;11.27;;
31906;SDS011;18455;50.858;13.662;2023-11-21T07:33:34;21.30;;;10.80;;
31906;SDS011;18455;50.858;13.662;2023-11-21T07:38:34;25.20;;;9.33;;
31906;SDS011;18455;50.858;13.662;2023-11-21T07:43:35;23.43;;;10.50;;
31906;SDS011;18455;50.858;13.662;2023-11-21T07:48:35;23.70;;;10.90;;
31906;SDS011;18455;50.858;13.662;2023-11-21T07:53:36;32.07;;;13.33;;
31906;SDS011;18455;50.858;13.662;2023-11-21T07:58:36;34.00;;;15.27;;
31906;SDS011;18455;50.858;13.662;2023-11-21T08:03:37;27.83;;;13.60;;
31906;SDS011;18455;50.858;13.662;2023-11-21T08:08:37;29.50;;;13.70;;
31906;SDS011;18455;50.858;13.662;2023-11-21T08:13:37;26.83;;;12.40;;
31906;SDS011;18455;50.858;13.662;2023-11-21T08:18:37;31.05;;;12.15;;
31906;SDS011;18455;50.858;13.662;2023-11-21T08:23:38;24.37;;;11.23;;
31906;SDS011;18455;50.858;13.662;2023-11-21T08:28:38;16.53;;;9.23;;
31906;SDS011;18455;50.858;13.662;2023-11-21T08:33:38;23.50;;;10.60;;
31906;SDS011;18455;50.858;13.662;2023-11-21T08:38:38;14.97;;;9.00;;
31906;SDS011;18455;50.858;13.662;2023-11-21T08:43:39;19.27;;;9.00;;
31906;SDS011;18455;50.858;13.662;2023-11-21T08:48:40;19.93;;;10.40;;
31906;SDS011;18455;50.858;13.662;2023-11-21T08:53:41;19.73;;;9.87;;
31906;SDS011;18455;50.858;13.662;2023-11-21T08:58:41;22.53;;;10.77;;
31906;SDS011;18455;50.858;13.662;2023-11-21T09:03:41;20.03;;;10.33;;
31906;SDS011;18455;50.858;13.662;2023-11-21T09:08:43;17.03;;;9.87;;
31906;SDS011;18455;50.858;13.662;2023-11-21T09:13:43;12.37;;;8.57;;
31906;SDS011;18455;50.858;13.662;2023-11-21T09:18:44;11.83;;;6.20;;
31906;SDS011;18455;50.858;13.662;2023-11-21T09:23:45;11.83;;;6.77;;
31906;SDS011;18455;50.858;13.662;2023-11-21T09:28:46;11.80;;;5.93;;
31906;SDS011;18455;50.858;13.662;2023-11-21T09:33:48;8.13;;;6.30;;
31906;SDS011;18455;50.858;13.662;2023-11-21T09:38:49;14.37;;;6.17;;
31906;SDS011;18455;50.858;13.662;2023-11-21T09:43:50;10.87;;;5.67;;
31906;SDS011;18455;50.858;13.662;2023-11-21T09:48:53;7.80;;;5.10;;
31906;SDS011;18455;50.858;13.662;2023-11-21T09:53:54;9.40;;;4.23;;
31906;SDS011;18455;50.858;13.662;2023-11-21T09:58:54;6.93;;;4.67;;
31906;SDS011;18455;50.858;13.662;2023-11-21T10:03:57;5.57;;;3.90;;
31906;SDS011;18455;50.858;13.662;2023-11-21T10:08:57;5.97;;;3.40;;
31906;SDS011;18455;50.858;13.662;2023-11-21T10:13:58;5.50;;;4.17;;
31906;SDS011;18455;50.858;13.662;2023-11-21T10:18:59;3.00;;;2.80;;
31906;SDS011;18455;50.858;13.662;2023-11-21T10:24:00;4.77;;;4.27;;
31906;SDS011;18455;50.858;13.662;2023-11-21T10:29:03;7.07;;;5.73;;
31906;SDS011;18455;50.858;13.662;2023-11-21T10:34:12;6.23;;;5.07;;
31906;SDS011;18455;50.858;13.662;2023-11-21T10:39:19;5.73;;;3.83;;
31906;SDS011;18455;50.858;13.662;2023-11-21T10:44:20;3.50;;;3.20;;
31906;SDS011;18455;50.858;13.662;2023-11-21T10:49:21;3.60;;;2.70;;
31906;SDS011;18455;50.858;13.662;2023-11-21T10:54:22;3.00;;;2.40;;
31906;SDS011;18455;50.858;13.662;2023-11-21T10:59:23;1.77;;;1.60;;
31906;SDS011;18455;50.858;13.662;2023-11-21T11:04:25;2.20;;;2.00;;
31906;SDS011;18455;50.858;13.662;2023-11-21T11:09:27;2.53;;;2.33;;
31906;SDS011;18455;50.858;13.662;2023-11-21T11:14:27;2.10;;;1.50;;
31906;SDS011;18455;50.858;13.662;2023-11-21T11:19:28;4.67;;;2.00;;
31906;SDS011;18455;50.858;13.662;2023-11-21T11:24:44;47.07;;;4.40;;
31906;SDS011;18455;50.858;13.662;2023-11-21T11:34:56;198.97;;;15.17;;
31906;SDS011;18455;50.858;13.662;2023-11-21T11:39:59;376.60;;;16.23;;
31906;SDS011;18455;50.858;13.662;2023-11-21T11:44:59;342.40;;;30.13;;
31906;SDS011;18455;50.858;13.662;2023-11-21T11:50:01;440.80;;;28.80;;
31906;SDS011;18455;50.858;13.662;2023-11-21T11:55:08;74.17;;;20.23;;
31906;SDS011;18455;50.858;13.662;2023-11-21T12:00:18;12.33;;;7.43;;
31906;SDS011;18455;50.858;13.662;2023-11-21T12:05:25;15.60;;;9.13;;
31906;SDS011;18455;50.858;13.662;2023-11-21T12:10:30;42.57;;;12.03;;
31906;SDS011;18455;50.858;13.662;2023-11-21T12:15:30;93.77;;;13.03;;
31906;SDS011;18455;50.858;13.662;2023-11-21T12:20:31;213.10;;;16.47;;
31906;SDS011;18455;50.858;13.662;2023-11-21T12:25:32;408.70;;;26.23;;
31906;SDS011;18455;50.858;13.662;2023-11-21T12:30:34;549.50;;;36.03;;
31906;SDS011;18455;50.858;13.662;2023-11-21T12:35:35;585.43;;;38.27;;
31906;SDS011;18455;50.858;13.662;2023-11-21T12:40:36;796.20;;;47.40;;
31906;SDS011;18455;50.858;13.662;2023-11-21T12:45:36;564.30;;;32.53;;
31906;SDS011;18455;50.858;13.662;2023-11-21T12:50:38;85.27;;;15.53;;
31906;SDS011;18455;50.858;13.662;2023-11-21T12:55:38;247.03;;;20.17;;
31906;SDS011;18455;50.858;13.662;2023-11-21T13:00:40;252.47;;;23.50;;
31906;SDS011;18455;50.858;13.662;2023-11-21T13:05:42;66.57;;;16.50;;
31906;SDS011;18455;50.858;13.662;2023-11-21T13:10:45;57.47;;;15.73;;
31906;SDS011;18455;50.858;13.662;2023-11-21T13:15:50;42.13;;;16.63;;
31906;SDS011;18455;50.858;13.662;2023-11-21T13:20:50;29.83;;;13.77;;
31906;SDS011;18455;50.858;13.662;2023-11-21T13:25:53;20.00;;;10.27;;
31906;SDS011;18455;50.858;13.662;2023-11-21T13:30:55;26.57;;;13.47;;
31906;SDS011;18455;50.858;13.662;2023-11-21T13:35:56;22.93;;;12.30;;
31906;SDS011;18455;50.858;13.662;2023-11-21T13:40:57;22.43;;;12.47;;
31906;SDS011;18455;50.858;13.662;2023-11-21T13:46:02;15.77;;;9.13;;
31906;SDS011;18455;50.858;13.662;2023-11-21T13:51:10;19.53;;;12.27;;
31906;SDS011;18455;50.858;13.662;2023-11-21T13:56:16;13.97;;;8.57;;
31906;SDS011;18455;50.858;13.662;2023-11-21T14:01:26;13.83;;;9.00;;
31906;SDS011;18455;50.858;13.662;2023-11-21T14:06:29;16.47;;;10.33;;
31906;SDS011;18455;50.858;13.662;2023-11-21T14:11:40;12.43;;;8.77;;
31906;SDS011;18455;50.858;13.662;2023-11-21T14:16:40;14.03;;;7.63;;
31906;SDS011;18455;50.858;13.662;2023-11-21T14:21:45;26.93;;;14.47;;
31906;SDS011;18455;50.858;13.662;2023-11-21T14:26:45;20.87;;;11.40;;
31906;SDS011;18455;50.858;13.662;2023-11-21T14:31:46;19.93;;;12.03;;
31906;SDS011;18455;50.858;13.662;2023-11-21T14:36:46;16.37;;;8.97;;
31906;SDS011;18455;50.858;13.662;2023-11-21T14:41:47;13.77;;;7.63;;
31906;SDS011;18455;50.858;13.662;2023-11-21T14:46:47;17.03;;;10.57;;
31906;SDS011;18455;50.858;13.662;2023-11-21T14:51:51;28.37;;;13.93;;
31906;SDS011;18455;50.858;13.662;2023-11-21T14:57:03;34.67;;;15.10;;
31906;SDS011;18455;50.858;13.662;2023-11-21T15:02:05;30.53;;;14.27;;
31906;SDS011;18455;50.858;13.662;2023-11-21T15:07:15;44.60;;;13.27;;
31906;SDS011;18455;50.858;13.662;2023-11-21T15:12:15;63.50;;;14.33;;
31906;SDS011;18455;50.858;13.662;2023-11-21T15:17:19;17.07;;;9.50;;
31906;SDS011;18455;50.858;13.662;2023-11-21T15:22:24;16.40;;;8.57;;
31906;SDS011;18455;50.858;13.662;2023-11-21T15:27:25;14.40;;;8.40;;
31906;SDS011;18455;50.858;13.662;2023-11-21T15:32:30;16.50;;;8.13;;
31906;SDS011;18455;50.858;13.662;2023-11-21T15:37:30;9.53;;;5.87;;
31906;SDS011;18455;50.858;13.662;2023-11-21T15:42:31;14.00;;;8.23;;
31906;SDS011;18455;50.858;13.662;2023-11-21T15:47:31;14.47;;;8.60;;
31906;SDS011;18455;50.858;13.662;2023-11-21T15:52:31;19.33;;;10.10;;
31906;SDS011;18455;50.858;13.662;2023-11-21T15:57:31;36.23;;;11.60;;
31906;SDS011;18455;50.858;13.662;2023-11-21T16:02:32;21.17;;;10.97;;
31906;SDS011;18455;50.858;13.662;2023-11-21T16:07:33;13.17;;;7.90;;
31906;SDS011;18455;50.858;13.662;2023-11-21T16:12:34;14.23;;;8.00;;
31906;SDS011;18455;50.858;13.662;2023-11-21T16:17:35;14.93;;;7.93;;
31906;SDS011;18455;50.858;13.662;2023-11-21T16:22:36;17.83;;;9.73;;
31906;SDS011;18455;50.858;13.662;2023-11-21T16:27:40;14.73;;;7.77;;
31906;SDS011;18455;50.858;13.662;2023-11-21T16:32:40;14.50;;;8.87;;
31906;SDS011;18455;50.858;13.662;2023-11-21T16:37:41;14.37;;;9.33;;
31906;SDS011;18455;50.858;13.662;2023-11-21T16:42:43;16.93;;;9.57;;
31906;SDS011;18455;50.858;13.662;2023-11-21T16:47:43;22.50;;;10.00;;
31906;SDS011;18455;50.858;13.662;2023-11-21T16:52:43;16.80;;;8.70;;
31906;SDS011;18455;50.858;13.662;2023-11-21T16:57:43;12.50;;;7.47;;
31906;SDS011;18455;50.858;13.662;2023-11-21T17:02:44;12.03;;;8.60;;
31906;SDS011;18455;50.858;13.662;2023-11-21T17:07:47;14.67;;;7.40;;
31906;SDS011;18455;50.858;13.662;2023-11-21T17:12:47;9.63;;;6.90;;
31906;SDS011;18455;50.858;13.662;2023-11-21T17:17:49;11.27;;;7.33;;
31906;SDS011;18455;50.858;13.662;2023-11-21T17:22:51;8.30;;;5.87;;
31906;SDS011;18455;50.858;13.662;2023-11-21T17:27:51;6.50;;;5.20;;
31906;SDS011;18455;50.858;13.662;2023-11-21T17:32:52;7.80;;;5.33;;
31906;SDS011;18455;50.858;13.662;2023-11-21T17:37:52;6.83;;;3.90;;
31906;SDS011;18455;50.858;13.662;2023-11-21T17:42:52;5.87;;;4.23;;
31906;SDS011;18455;50.858;13.662;2023-11-21T17:47:52;18.80;;;7.07;;
31906;SDS011;18455;50.858;13.662;2023-11-21T17:52:52;7.13;;;4.27;;
31906;SDS011;18455;50.858;13.662;2023-11-21T17:57:54;5.30;;;4.40;;
31906;SDS011;18455;50.858;13.662;2023-11-21T18:02:54;4.60;;;3.83;;
31906;SDS011;18455;50.858;13.662;2023-11-21T18:07:54;3.80;;;3.43;;
31906;SDS011;18455;50.858;13.662;2023-11-21T18:12:54;6.60;;;4.83;;
31906;SDS011;18455;50.858;13.662;2023-11-21T18:17:55;5.13;;;4.00;;
31906;SDS011;18455;50.858;13.662;2023-11-21T18:22:55;5.73;;;4.43;;
31906;SDS011;18455;50.858;13.662;2023-11-21T18:27:55;9.17;;;6.83;;
31906;SDS011;18455;50.858;13.662;2023-11-21T18:32:55;10.13;;;6.47;;
31906;SDS011;18455;50.858;13.662;2023-11-21T18:37:56;10.03;;;6.97;;
31906;SDS011;18455;50.858;13.662;2023-11-21T18:42:56;9.27;;;6.63;;
31906;SDS011;18455;50.858;13.662;2023-11-21T18:47:56;7.70;;;5.87;;
31906;SDS011;18455;50.858;13.662;2023-11-21T18:52:56;6.83;;;5.40;;
31906;SDS011;18455;50.858;13.662;2023-11-21T18:57:58;7.73;;;6.20;;
31906;SDS011;18455;50.858;13.662;2023-11-21T19:02:58;7.13;;;5.07;;
31906;SDS011;18455;50.858;13.662;2023-11-21T19:07:58;7.33;;;5.73;;
31906;SDS011;18455;50.858;13.662;2023-11-21T19:12:59;8.30;;;5.97;;
31906;SDS011;18455;50.858;13.662;2023-11-21T19:18:03;9.87;;;7.27;;
31906;SDS011;18455;50.858;13.662;2023-11-21T19:23:03;11.30;;;6.00;;
31906;SDS011;18455;50.858;13.662;2023-11-21T19:28:03;10.27;;;7.47;;
31906;SDS011;18455;50.858;13.662;2023-11-21T19:33:03;10.57;;;6.10;;
31906;SDS011;18455;50.858;13.662;2023-11-21T19:38:05;7.47;;;5.13;;
31906;SDS011;18455;50.858;13.662;2023-11-21T19:43:05;7.43;;;6.23;;
31906;SDS011;18455;50.858;13.662;2023-11-21T19:48:07;6.40;;;5.00;;
31906;SDS011;18455;50.858;13.662;2023-11-21T19:53:08;7.93;;;5.20;;
31906;SDS011;18455;50.858;13.662;2023-11-21T19:58:08;5.23;;;4.50;;
31906;SDS011;18455;50.858;13.662;2023-11-21T20:03:10;7.77;;;5.07;;
31906;SDS011;18455;50.858;13.662;2023-11-21T20:08:11;10.93;;;6.30;;
31906;SDS011;18455;50.858;13.662;2023-11-21T20:13:11;6.17;;;4.47;;
31906;SDS011;18455;50.858;13.662;2023-11-21T20:18:13;8.37;;;5.97;;
31906;SDS011;18455;50.858;13.662;2023-11-21T20:23:13;10.13;;;7.87;;
31906;SDS011;18455;50.858;13.662;2023-11-21T20:28:15;9.37;;;6.50;;
31906;SDS011;18455;50.858;13.662;2023-11-21T20:33:16;8.75;;;6.90;;
31906;SDS011;18455;50.858;13.662;2023-11-21T20:38:17;14.03;;;6.93;;
31906;SDS011;18455;50.858;13.662;2023-11-21T20:43:19;7.20;;;5.33;;
31906;SDS011;18455;50.858;13.662;2023-11-21T20:48:19;9.63;;;6.53;;
31906;SDS011;18455;50.858;13.662;2023-11-21T20:53:19;9.45;;;6.00;;
31906;SDS011;18455;50.858;13.662;2023-11-21T20:58:20;6.23;;;4.60;;
31906;SDS011;18455;50.858;13.662;2023-11-21T21:03:20;4.90;;;4.13;;
31906;SDS011;18455;50.858;13.662;2023-11-21T21:08:20;10.97;;;6.50;;
31906;SDS011;18455;50.858;13.662;2023-11-21T21:13:20;6.17;;;4.90;;
31906;SDS011;18455;50.858;13.662;2023-11-21T21:18:21;9.17;;;5.77;;
31906;SDS011;18455;50.858;13.662;2023-11-21T21:23:21;9.93;;;6.20;;
31906;SDS011;18455;50.858;13.662;2023-11-21T21:28:22;7.33;;;5.80;;
31906;SDS011;18455;50.858;13.662;2023-11-21T21:33:22;7.23;;;5.77;;
31906;SDS011;18455;50.858;13.662;2023-11-21T21:38:22;6.80;;;5.50;;
31906;SDS011;18455;50.858;13.662;2023-11-21T21:43:24;7.60;;;6.67;;
31906;SDS011;18455;50.858;13.662;2023-11-21T21:48:24;7.43;;;5.60;;
31906;SDS011;18455;50.858;13.662;2023-11-21T21:53:24;6.30;;;4.95;;
31906;SDS011;18455;50.858;13.662;2023-11-21T21:58:24;10.00;;;7.67;;
31906;SDS011;18455;50.858;13.662;2023-11-21T22:03:26;7.40;;;5.30;;
31906;SDS011;18455;50.858;13.662;2023-11-21T22:08:26;7.90;;;5.70;;
31906;SDS011;18455;50.858;13.662;2023-11-21T22:13:27;7.97;;;6.00;;
31906;SDS011;18455;50.858;13.662;2023-11-21T22:18:27;7.80;;;5.63;;
31906;SDS011;18455;50.858;13.662;2023-11-21T22:23:27;10.65;;;7.03;;
31906;SDS011;18455;50.858;13.662;2023-11-21T22:28:27;14.73;;;9.90;;
31906;SDS011;18455;50.858;13.662;2023-11-21T22:33:28;15.63;;;10.13;;
31906;SDS011;18455;50.858;13.662;2023-11-21T22:38:28;17.83;;;12.83;;
31906;SDS011;18455;50.858;13.662;2023-11-21T22:43:28;18.00;;;11.67;;
31906;SDS011;18455;50.858;13.662;2023-11-21T22:48:29;15.50;;;11.90;;
31906;SDS011;18455;50.858;13.662;2023-11-21T22:53:30;19.60;;;13.60;;
31906;SDS011;18455;50.858;13.662;2023-11-21T22:58:30;14.93;;;10.87;;
31906;SDS011;18455;50.858;13.662;2023-11-21T23:03:30;15.57;;;10.97;;
31906;SDS011;18455;50.858;13.662;2023-11-21T23:08:30;18.43;;;13.63;;
31906;SDS011;18455;50.858;13.662;2023-11-21T23:13:31;15.83;;;11.13;;
31906;SDS011;18455;50.858;13.662;2023-11-21T23:18:31;14.00;;;9.87;;
31906;SDS011;18455;50.858;13.662;2023-11-21T23:23:32;14.67;;;11.03;;
31906;SDS011;18455;50.858;13.662;2023-11-21T23:28:32;16.00;;;10.88;;
31906;SDS011;18455;50.858;13.662;2023-11-21T23:33:32;17.40;;;12.23;;
31906;SDS011;18455;50.858;13.662;2023-11-21T23:38:33;18.67;;;12.47;;
31906;SDS011;18455;50.858;13.662;2023-11-21T23:43:33;17.20;;;11.77;;
31906;SDS011;18455;50.858;13.662;2023-11-21T23:48:33;17.80;;;12.97;;
31906;SDS011;18455;50.858;13.662;2023-11-21T23:53:34;22.77;;;13.87;;
31906;SDS011;18455;50.858;13.662;2023-11-21T23:58:34;21.38;;;14.32;;
